^^
Your Local Weather - Clay, NY Station Historical Data
 
Daily Summary for October 20, 2018 Units:  Both    English   Metric
« Previous Day
Next Day »
Daily Weekly Monthly Yearly Custom
  Current: High: Low: Average:
Temperature: 46.6 °F /  8.1 °C 58.1 °F /  14.5 °C 46.6 °F /  8.1 °C 52.8 °F /  11.6 °C
Dew Point: 38.4 °F /  3.6 °C 46 °F /  7.8 °C 34.1 °F /  1.2 °C 39.2 °F /  4 °C
Humidity: 73% 85% 47% 61%
Wind Speed: 0mph /  0km/h 6mph /  9.7km/h - 2.6mph /  4.2km/h
Wind Gust: 0mph /  0km/h 15mph /  24.1km/h - -
WindCalm - - WSW
Pressure: 29.59 in /  1001.9 hPa 29.67 in /  1004.6 hPa 29.54 in /  1000.2 hPa -
Precipitation: 0 in /  0 mm      
Historical Graphs
 
 
Tabular Data for October 20, 2018
Time Temperature Dew Point Pressure Wind Wind Speed Wind Gust Humidity Rainfall Rate (Hourly) solar
00:00 54.5 °F /  12.5 °C 35.2 °F /  1.8 °C 29.67in /  1004.6hPa SSW 3mph /  4.8km/h 7mph /  11.3km/h 48% 0in /  0mm 0.00 W/m2
00:04 54.6 °F /  12.6 °C 35.3 °F /  1.8 °C 29.67in /  1004.6hPa SSW 4mph /  6.4km/h 7mph /  11.3km/h 48% 0in /  0mm 0.00 W/m2
00:08 54.6 °F /  12.6 °C 35.3 °F /  1.8 °C 29.65in /  1003.9hPa SSW 5mph /  8km/h 7mph /  11.3km/h 48% 0in /  0mm 0.00 W/m2
00:14 54.8 °F /  12.7 °C 34.9 °F /  1.6 °C 29.65in /  1003.9hPa SW 5mph /  8km/h 9mph /  14.5km/h 47% 0in /  0mm 0.00 W/m2
00:20 54.7 °F /  12.6 °C 34.8 °F /  1.6 °C 29.65in /  1003.9hPa SW 4mph /  6.4km/h 4mph /  6.4km/h 47% 0in /  0mm 0.00 W/m2
00:24 54.7 °F /  12.6 °C 34.8 °F /  1.6 °C 29.65in /  1003.9hPa SSW 4mph /  6.4km/h 9mph /  14.5km/h 47% 0in /  0mm 0.00 W/m2
00:30 54.7 °F /  12.6 °C 34.8 °F /  1.6 °C 29.65in /  1003.9hPa SW 4mph /  6.4km/h 4mph /  6.4km/h 47% 0in /  0mm 0.00 W/m2
00:34 54.6 °F /  12.6 °C 35.3 °F /  1.8 °C 29.65in /  1003.9hPa WSW 4mph /  6.4km/h 4mph /  6.4km/h 48% 0in /  0mm 0.00 W/m2
00:38 54.6 °F /  12.6 °C 35.3 °F /  1.8 °C 29.65in /  1003.9hPa SW 4mph /  6.4km/h 4mph /  6.4km/h 48% 0in /  0mm 0.00 W/m2
00:44 54.5 °F /  12.5 °C 35.2 °F /  1.8 °C 29.65in /  1003.9hPa SW 3mph /  4.8km/h 7mph /  11.3km/h 48% 0in /  0mm 0.00 W/m2
00:50 54.8 °F /  12.7 °C 34.9 °F /  1.6 °C 29.64in /  1003.6hPa SSW 4mph /  6.4km/h 6mph /  9.7km/h 47% 0in /  0mm 0.00 W/m2
00:54 54.8 °F /  12.7 °C 34.9 °F /  1.6 °C 29.63in /  1003.3hPa SSW 5mph /  8km/h 9mph /  14.5km/h 47% 0in /  0mm 0.00 W/m2
01:00 54.9 °F /  12.7 °C 35 °F /  1.7 °C 29.63in /  1003.3hPa SSW 4mph /  6.4km/h 4mph /  6.4km/h 47% 0in /  0mm 0.00 W/m2
01:04 54.9 °F /  12.7 °C 35 °F /  1.7 °C 29.63in /  1003.3hPa SW 4mph /  6.4km/h 11mph /  17.7km/h 47% 0in /  0mm 0.00 W/m2
01:10 55.1 °F /  12.8 °C 35.2 °F /  1.8 °C 29.63in /  1003.3hPa SSW 4mph /  6.4km/h 4mph /  6.4km/h 47% 0in /  0mm 0.00 W/m2
01:14 55 °F /  12.8 °C 35.1 °F /  1.7 °C 29.63in /  1003.3hPa South 5mph /  8km/h 5mph /  8km/h 47% 0in /  0mm 0.00 W/m2
01:20 55 °F /  12.8 °C 35.1 °F /  1.7 °C 29.63in /  1003.3hPa SW 4mph /  6.4km/h 4mph /  6.4km/h 47% 0in /  0mm 0.00 W/m2
01:24 55 °F /  12.8 °C 35.1 °F /  1.7 °C 29.63in /  1003.3hPa SW 5mph /  8km/h 8mph /  12.9km/h 47% 0in /  0mm 0.00 W/m2
01:30 54.9 °F /  12.7 °C 35 °F /  1.7 °C 29.63in /  1003.3hPa SW 5mph /  8km/h 5mph /  8km/h 47% 0in /  0mm 0.00 W/m2
01:34 54.9 °F /  12.7 °C 35.6 °F /  2 °C 29.62in /  1002.9hPa SW 5mph /  8km/h 7mph /  11.3km/h 48% 0in /  0mm 0.00 W/m2
01:38 54.9 °F /  12.7 °C 35.6 °F /  2 °C 29.62in /  1002.9hPa SSW 4mph /  6.4km/h 7mph /  11.3km/h 48% 0in /  0mm 0.00 W/m2
01:44 54.9 °F /  12.7 °C 35.6 °F /  2 °C 29.62in /  1002.9hPa SW 5mph /  8km/h 8mph /  12.9km/h 48% 0in /  0mm 0.00 W/m2
01:50 54.8 °F /  12.7 °C 35.5 °F /  1.9 °C 29.62in /  1002.9hPa WSW 5mph /  8km/h 9mph /  14.5km/h 48% 0in /  0mm 0.00 W/m2
01:54 54.8 °F /  12.7 °C 36 °F /  2.2 °C 29.62in /  1002.9hPa SW 5mph /  8km/h 9mph /  14.5km/h 49% 0in /  0mm 0.00 W/m2
02:00 54.6 °F /  12.6 °C 35.8 °F /  2.1 °C 29.61in /  1002.6hPa SW 5mph /  8km/h 5mph /  8km/h 49% 0in /  0mm 0.00 W/m2
02:04 54.6 °F /  12.6 °C 35.8 °F /  2.1 °C 29.61in /  1002.6hPa SW 4mph /  6.4km/h 5mph /  8km/h 49% 0in /  0mm 0.00 W/m2
02:10 54.5 °F /  12.5 °C 36.2 °F /  2.3 °C 29.61in /  1002.6hPa SW 4mph /  6.4km/h 4mph /  6.4km/h 50% 0in /  0mm 0.00 W/m2
02:14 54.4 °F /  12.4 °C 36.1 °F /  2.3 °C 29.60in /  1002.3hPa SSW 3mph /  4.8km/h 7mph /  11.3km/h 50% 0in /  0mm 0.00 W/m2
02:20 54.4 °F /  12.4 °C 36.1 °F /  2.3 °C 29.60in /  1002.3hPa SW 3mph /  4.8km/h 5mph /  8km/h 50% 0in /  0mm 0.00 W/m2
02:24 54.5 °F /  12.5 °C 36.2 °F /  2.3 °C 29.60in /  1002.3hPa South 4mph /  6.4km/h 7mph /  11.3km/h 50% 0in /  0mm 0.00 W/m2
02:30 54.4 °F /  12.4 °C 36.6 °F /  2.6 °C 29.60in /  1002.3hPa WSW 4mph /  6.4km/h 4mph /  6.4km/h 51% 0in /  0mm 0.00 W/m2
02:34 54.4 °F /  12.4 °C 36.6 °F /  2.6 °C 29.60in /  1002.3hPa WSW 3mph /  4.8km/h 8mph /  12.9km/h 51% 0in /  0mm 0.00 W/m2
02:40 54.2 °F /  12.3 °C 36.5 °F /  2.5 °C 29.60in /  1002.3hPa WSW 3mph /  4.8km/h 3mph /  4.8km/h 51% 0in /  0mm 0.00 W/m2
02:44 54.2 °F /  12.3 °C 36.5 °F /  2.5 °C 29.60in /  1002.3hPa SW 4mph /  6.4km/h 4mph /  6.4km/h 51% 0in /  0mm 0.00 W/m2
02:48 54 °F /  12.2 °C 36.8 °F /  2.7 °C 29.60in /  1002.3hPa SSW 2mph /  3.2km/h 4mph /  6.4km/h 52% 0in /  0mm 0.00 W/m2
02:54 53.9 °F /  12.2 °C 36.7 °F /  2.6 °C 29.59in /  1001.9hPa SW 2mph /  3.2km/h 5mph /  8km/h 52% 0in /  0mm 0.00 W/m2
03:00 53.8 °F /  12.1 °C 36.6 °F /  2.6 °C 29.59in /  1001.9hPa SW 3mph /  4.8km/h 6mph /  9.7km/h 52% 0in /  0mm 0.00 W/m2
03:04 53.9 °F /  12.2 °C 36.2 °F /  2.3 °C 29.58in /  1001.6hPa SW 3mph /  4.8km/h 6mph /  9.7km/h 51% 0in /  0mm 0.00 W/m2
03:10 54 °F /  12.2 °C 36.8 °F /  2.7 °C 29.58in /  1001.6hPa SW 4mph /  6.4km/h 4mph /  6.4km/h 52% 0in /  0mm 0.00 W/m2
03:14 53.9 °F /  12.2 °C 36.2 °F /  2.3 °C 29.57in /  1001.2hPa South 4mph /  6.4km/h 4mph /  6.4km/h 51% 0in /  0mm 0.00 W/m2
03:20 53.9 °F /  12.2 °C 36.7 °F /  2.6 °C 29.57in /  1001.2hPa WSW 4mph /  6.4km/h 5mph /  8km/h 52% 0in /  0mm 0.00 W/m2
03:24 53.8 °F /  12.1 °C 36.6 °F /  2.6 °C 29.58in /  1001.6hPa SSW 4mph /  6.4km/h 5mph /  8km/h 52% 0in /  0mm 0.00 W/m2
03:30 53.9 °F /  12.2 °C 36.7 °F /  2.6 °C 29.57in /  1001.2hPa SW 4mph /  6.4km/h 4mph /  6.4km/h 52% 0in /  0mm 0.00 W/m2
03:34 53.9 °F /  12.2 °C 36.7 °F /  2.6 °C 29.57in /  1001.2hPa SW 4mph /  6.4km/h 6mph /  9.7km/h 52% 0in /  0mm 0.00 W/m2
03:40 53.8 °F /  12.1 °C 36.6 °F /  2.6 °C 29.57in /  1001.2hPa SSW 5mph /  8km/h 5mph /  8km/h 52% 0in /  0mm 0.00 W/m2
03:44 53.7 °F /  12.1 °C 36.5 °F /  2.5 °C 29.57in /  1001.2hPa SW 4mph /  6.4km/h 6mph /  9.7km/h 52% 0in /  0mm 0.00 W/m2
03:50 53.7 °F /  12.1 °C 37 °F /  2.8 °C 29.57in /  1001.2hPa SW 5mph /  8km/h 9mph /  14.5km/h 53% 0in /  0mm 0.00 W/m2
03:54 53.8 °F /  12.1 °C 37.1 °F /  2.8 °C 29.56in /  1000.9hPa SW 5mph /  8km/h 9mph /  14.5km/h 53% 0in /  0mm 0.00 W/m2
03:58 53.7 °F /  12.1 °C 37.4 °F /  3 °C 29.56in /  1000.9hPa WSW 5mph /  8km/h 9mph /  14.5km/h 54% 0in /  0mm 0.00 W/m2
04:04 53.7 °F /  12.1 °C 37.4 °F /  3 °C 29.56in /  1000.9hPa SW 5mph /  8km/h 7mph /  11.3km/h 54% 0in /  0mm 0.00 W/m2
04:10 53.6 °F /  12 °C 37.3 °F /  2.9 °C 29.56in /  1000.9hPa WSW 4mph /  6.4km/h 4mph /  6.4km/h 54% 0in /  0mm 0.00 W/m2
04:14 53.6 °F /  12 °C 37.3 °F /  2.9 °C 29.56in /  1000.9hPa SW 4mph /  6.4km/h 4mph /  6.4km/h 54% 0in /  0mm 0.00 W/m2
04:18 53.5 °F /  11.9 °C 37.7 °F /  3.2 °C 29.56in /  1000.9hPa SW 4mph /  6.4km/h 5mph /  8km/h 55% 0in /  0mm 0.00 W/m2
04:24 53.4 °F /  11.9 °C 38.1 °F /  3.4 °C 29.56in /  1000.9hPa SW 4mph /  6.4km/h 4mph /  6.4km/h 56% 0in /  0mm 0.00 W/m2
04:30 53.4 °F /  11.9 °C 38.1 °F /  3.4 °C 29.56in /  1000.9hPa SSW 5mph /  8km/h 5mph /  8km/h 56% 0in /  0mm 0.00 W/m2
04:34 53.4 °F /  11.9 °C 38.1 °F /  3.4 °C 29.55in /  1000.6hPa SW 5mph /  8km/h 6mph /  9.7km/h 56% 0in /  0mm 0.00 W/m2
04:40 53.4 °F /  11.9 °C 38.5 °F /  3.6 °C 29.56in /  1000.9hPa WSW 5mph /  8km/h 6mph /  9.7km/h 57% 0in /  0mm 0.00 W/m2
04:44 53.3 °F /  11.8 °C 38.4 °F /  3.6 °C 29.55in /  1000.6hPa SSW 5mph /  8km/h 8mph /  12.9km/h 57% 0in /  0mm 0.00 W/m2
04:50 53.4 °F /  11.9 °C 38.5 °F /  3.6 °C 29.55in /  1000.6hPa SSW 6mph /  9.7km/h 7mph /  11.3km/h 57% 0in /  0mm 0.00 W/m2
04:54 53.4 °F /  11.9 °C 38.5 °F /  3.6 °C 29.55in /  1000.6hPa South 5mph /  8km/h 8mph /  12.9km/h 57% 0in /  0mm 0.00 W/m2
05:00 53.3 °F /  11.8 °C 38.9 °F /  3.8 °C 29.55in /  1000.6hPa South 5mph /  8km/h 5mph /  8km/h 58% 0in /  0mm 0.00 W/m2
05:04 53.2 °F /  11.8 °C 38.8 °F /  3.8 °C 29.55in /  1000.6hPa SW 5mph /  8km/h 7mph /  11.3km/h 58% 0in /  0mm 0.00 W/m2
05:08 53.2 °F /  11.8 °C 39.2 °F /  4 °C 29.55in /  1000.6hPa WSW 5mph /  8km/h 7mph /  11.3km/h 59% 0in /  0mm 0.00 W/m2
05:14 53.2 °F /  11.8 °C 39.2 °F /  4 °C 29.55in /  1000.6hPa SW 5mph /  8km/h 8mph /  12.9km/h 59% 0in /  0mm 0.00 W/m2
05:20 53.2 °F /  11.8 °C 39.2 °F /  4 °C 29.55in /  1000.6hPa WSW 6mph /  9.7km/h 6mph /  9.7km/h 59% 0in /  0mm 0.00 W/m2
05:24 53.2 °F /  11.8 °C 39.2 °F /  4 °C 29.55in /  1000.6hPa WSW 6mph /  9.7km/h 7mph /  11.3km/h 59% 0in /  0mm 0.00 W/m2
05:30 53.2 °F /  11.8 °C 39.7 °F /  4.3 °C 29.55in /  1000.6hPa SW 5mph /  8km/h 7mph /  11.3km/h 60% 0in /  0mm 0.00 W/m2
05:34 53.1 °F /  11.7 °C 39.6 °F /  4.2 °C 29.55in /  1000.6hPa WSW 5mph /  8km/h 7mph /  11.3km/h 60% 0in /  0mm 0.00 W/m2
05:38 53.2 °F /  11.8 °C 39.2 °F /  4 °C 29.54in /  1000.2hPa WSW 5mph /  8km/h 8mph /  12.9km/h 59% 0in /  0mm 0.00 W/m2
05:44 53.2 °F /  11.8 °C 39.2 °F /  4 °C 29.55in /  1000.6hPa WSW 6mph /  9.7km/h 10mph /  16.1km/h 59% 0in /  0mm 0.00 W/m2
05:50 53.2 °F /  11.8 °C 39.7 °F /  4.3 °C 29.54in /  1000.2hPa West 6mph /  9.7km/h 9mph /  14.5km/h 60% 0in /  0mm 0.00 W/m2
05:54 53.1 °F /  11.7 °C 39.6 °F /  4.2 °C 29.55in /  1000.6hPa West 6mph /  9.7km/h 10mph /  16.1km/h 60% 0in /  0mm 0.00 W/m2
06:00 53.1 °F /  11.7 °C 39.6 °F /  4.2 °C 29.55in /  1000.6hPa WSW 6mph /  9.7km/h 9mph /  14.5km/h 60% 0in /  0mm 0.00 W/m2
06:04 53.1 °F /  11.7 °C 40 °F /  4.4 °C 29.55in /  1000.6hPa SW 6mph /  9.7km/h 9mph /  14.5km/h 61% 0in /  0mm 0.00 W/m2
06:10 52.9 °F /  11.6 °C 39.8 °F /  4.3 °C 29.55in /  1000.6hPa WSW 5mph /  8km/h 9mph /  14.5km/h 61% 0in /  0mm 0.00 W/m2
06:14 52.9 °F /  11.6 °C 39.8 °F /  4.3 °C 29.55in /  1000.6hPa SW 5mph /  8km/h 12mph /  19.3km/h 61% 0in /  0mm 0.00 W/m2
06:18 52.9 °F /  11.6 °C 39.8 °F /  4.3 °C 29.55in /  1000.6hPa SW 5mph /  8km/h 12mph /  19.3km/h 61% 0in /  0mm 0.00 W/m2
06:24 52.9 °F /  11.6 °C 39.8 °F /  4.3 °C 29.55in /  1000.6hPa West 5mph /  8km/h 6mph /  9.7km/h 61% 0in /  0mm 0.00 W/m2
06:30 52.8 °F /  11.6 °C 40.1 °F /  4.5 °C 29.55in /  1000.6hPa WSW 6mph /  9.7km/h 6mph /  9.7km/h 62% 0in /  0mm 0.00 W/m2
06:34 52.7 °F /  11.5 °C 40 °F /  4.4 °C 29.55in /  1000.6hPa SW 5mph /  8km/h 6mph /  9.7km/h 62% 0in /  0mm 0.00 W/m2
06:40 52.6 °F /  11.4 °C 40.4 °F /  4.7 °C 29.55in /  1000.6hPa SW 4mph /  6.4km/h 6mph /  9.7km/h 63% 0in /  0mm 0.00 W/m2
06:44 52.5 °F /  11.4 °C 40.3 °F /  4.6 °C 29.55in /  1000.6hPa WSW 4mph /  6.4km/h 11mph /  17.7km/h 63% 0in /  0mm 0.00 W/m2
06:50 52.4 °F /  11.3 °C 41 °F /  5 °C 29.55in /  1000.6hPa SW 4mph /  6.4km/h 4mph /  6.4km/h 65% 0in /  0mm 0.00 W/m2
06:54 52.4 °F /  11.3 °C 40.6 °F /  4.8 °C 29.56in /  1000.9hPa SW 4mph /  6.4km/h 6mph /  9.7km/h 64% 0in /  0mm 0.00 W/m2
07:00 52.2 °F /  11.2 °C 41.2 °F /  5.1 °C 29.57in /  1001.2hPa WSW 3mph /  4.8km/h 3mph /  4.8km/h 66% 0in /  0mm 0.00 W/m2
07:04 51.9 °F /  11.1 °C 42 °F /  5.6 °C 29.57in /  1001.2hPa West 4mph /  6.4km/h 15mph /  24.1km/h 69% 0in /  0mm 0.00 W/m2
07:08 51.3 °F /  10.7 °C 42.2 °F /  5.7 °C 29.57in /  1001.2hPa SW 4mph /  6.4km/h 15mph /  24.1km/h 71% 0in /  0mm 0.00 W/m2
07:14 50.6 °F /  10.3 °C 42.6 °F /  5.9 °C 29.57in /  1001.2hPa WSW 3mph /  4.8km/h 6mph /  9.7km/h 74% 0in /  0mm 0.00 W/m2
07:20 49.8 °F /  9.9 °C 43.5 °F /  6.4 °C 29.58in /  1001.6hPa WSW 2mph /  3.2km/h 5mph /  8km/h 79% 0in /  0mm 0.00 W/m2
07:24 49.2 °F /  9.6 °C 43.6 °F /  6.4 °C 29.58in /  1001.6hPa WSW 1mph /  1.6km/h 5mph /  8km/h 81% 0in /  0mm 0.00 W/m2
07:30 48.6 °F /  9.2 °C 43.7 °F /  6.5 °C 29.57in /  1001.2hPa SSW 2mph /  3.2km/h 2mph /  3.2km/h 83% 0in /  0mm 0.00 W/m2
07:34 48.4 °F /  9.1 °C 43.8 °F /  6.6 °C 29.57in /  1001.2hPa SSW 3mph /  4.8km/h 5mph /  8km/h 84% 0in /  0mm 0.00 W/m2
07:40 48.2 °F /  9 °C 43.9 °F /  6.6 °C 29.57in /  1001.2hPa SSW 3mph /  4.8km/h 3mph /  4.8km/h 85% 0in /  0mm 5.00 W/m2
07:44 48.2 °F /  9 °C 43.9 °F /  6.6 °C 29.58in /  1001.6hPa SW 2mph /  3.2km/h 5mph /  8km/h 85% 0in /  0mm 5.00 W/m2
07:50 48.4 °F /  9.1 °C 43.8 °F /  6.6 °C 29.58in /  1001.6hPa WSW 3mph /  4.8km/h 3mph /  4.8km/h 84% 0in /  0mm 5.00 W/m2
07:54 48.4 °F /  9.1 °C 43.8 °F /  6.6 °C 29.58in /  1001.6hPa SW 2mph /  3.2km/h 3mph /  4.8km/h 84% 0in /  0mm 7.00 W/m2
08:00 48.5 °F /  9.2 °C 43.9 °F /  6.6 °C 29.58in /  1001.6hPa WSW 1mph /  1.6km/h 1mph /  1.6km/h 84% 0in /  0mm 9.00 W/m2
08:04 48.5 °F /  9.2 °C 43.9 °F /  6.6 °C 29.58in /  1001.6hPa SW 1mph /  1.6km/h 1mph /  1.6km/h 84% 0in /  0mm 11.00 W/m2
08:10 48.7 °F /  9.3 °C 44.1 °F /  6.7 °C 29.59in /  1001.9hPa WSW 2mph /  3.2km/h 2mph /  3.2km/h 84% 0in /  0mm 21.00 W/m2
08:14 48.9 °F /  9.4 °C 44.3 °F /  6.8 °C 29.59in /  1001.9hPa SSW 3mph /  4.8km/h 3mph /  4.8km/h 84% 0in /  0mm 25.00 W/m2
08:20 49 °F /  9.4 °C 44.4 °F /  6.9 °C 29.59in /  1001.9hPa WSW 2mph /  3.2km/h 2mph /  3.2km/h 84% 0in /  0mm 42.00 W/m2
08:24 49.2 °F /  9.6 °C 44.6 °F /  7 °C 29.60in /  1002.3hPa WSW 2mph /  3.2km/h 3mph /  4.8km/h 84% 0in /  0mm 35.00 W/m2
08:30 49.5 °F /  9.7 °C 44.9 °F /  7.2 °C 29.60in /  1002.3hPa WSW 2mph /  3.2km/h 4mph /  6.4km/h 84% 0in /  0mm 56.00 W/m2
08:34 49.7 °F /  9.8 °C 44.7 °F /  7.1 °C 29.60in /  1002.3hPa WSW 3mph /  4.8km/h 4mph /  6.4km/h 83% 0in /  0mm 53.00 W/m2
08:38 49.9 °F /  9.9 °C 44.9 °F /  7.2 °C 29.60in /  1002.3hPa SW 3mph /  4.8km/h 4mph /  6.4km/h 83% 0in /  0mm 54.00 W/m2
08:44 50.2 °F /  10.1 °C 44.9 °F /  7.2 °C 29.60in /  1002.3hPa WSW 3mph /  4.8km/h 3mph /  4.8km/h 82% 0in /  0mm 54.00 W/m2
08:50 50.3 °F /  10.2 °C 45 °F /  7.2 °C 29.60in /  1002.3hPa WSW 2mph /  3.2km/h 5mph /  8km/h 82% 0in /  0mm 40.00 W/m2
08:54 50.4 °F /  10.2 °C 44.8 °F /  7.1 °C 29.61in /  1002.6hPa SW 3mph /  4.8km/h 5mph /  8km/h 81% 0in /  0mm 42.00 W/m2
09:00 50.6 °F /  10.3 °C 45 °F /  7.2 °C 29.61in /  1002.6hPa West 3mph /  4.8km/h 3mph /  4.8km/h 81% 0in /  0mm 54.00 W/m2
09:04 50.7 °F /  10.4 °C 45.1 °F /  7.3 °C 29.61in /  1002.6hPa WSW 2mph /  3.2km/h 3mph /  4.8km/h 81% 0in /  0mm 84.00 W/m2
09:08 51.1 °F /  10.6 °C 45.5 °F /  7.5 °C 29.61in /  1002.6hPa SW 2mph /  3.2km/h 3mph /  4.8km/h 81% 0in /  0mm 162.00 W/m2
09:14 51.8 °F /  11 °C 45.5 °F /  7.5 °C 29.61in /  1002.6hPa SW 2mph /  3.2km/h 9mph /  14.5km/h 79% 0in /  0mm 125.00 W/m2
09:20 52.4 °F /  11.3 °C 45.1 °F /  7.3 °C 29.61in /  1002.6hPa WSW 2mph /  3.2km/h 2mph /  3.2km/h 76% 0in /  0mm 371.00 W/m2
09:24 52.3 °F /  11.3 °C 45.3 °F /  7.4 °C 29.61in /  1002.6hPa SW 3mph /  4.8km/h 11mph /  17.7km/h 77% 0in /  0mm 67.00 W/m2
09:30 52.1 °F /  11.2 °C 44.8 °F /  7.1 °C 29.61in /  1002.6hPa SW 3mph /  4.8km/h 3mph /  4.8km/h 76% 0in /  0mm 339.00 W/m2
09:34 52.3 °F /  11.3 °C 45 °F /  7.2 °C 29.61in /  1002.6hPa SW 3mph /  4.8km/h 4mph /  6.4km/h 76% 0in /  0mm 90.00 W/m2
09:38 52.1 °F /  11.2 °C 44.4 °F /  6.9 °C 29.61in /  1002.6hPa SSW 2mph /  3.2km/h 4mph /  6.4km/h 75% 0in /  0mm 107.00 W/m2
09:44 52.2 °F /  11.2 °C 44.9 °F /  7.2 °C 29.61in /  1002.6hPa West 3mph /  4.8km/h 5mph /  8km/h 76% 0in /  0mm 410.00 W/m2
09:50 52.7 °F /  11.5 °C 44.3 °F /  6.8 °C 29.61in /  1002.6hPa West 2mph /  3.2km/h 2mph /  3.2km/h 73% 0in /  0mm 448.00 W/m2
09:54 53.5 °F /  11.9 °C 44.3 °F /  6.8 °C 29.61in /  1002.6hPa WSW 2mph /  3.2km/h 2mph /  3.2km/h 71% 0in /  0mm 469.00 W/m2
10:00 53.5 °F /  11.9 °C 44.3 °F /  6.8 °C 29.61in /  1002.6hPa West 2mph /  3.2km/h 6mph /  9.7km/h 71% 0in /  0mm 158.00 W/m2
10:04 53 °F /  11.7 °C 43.5 °F /  6.4 °C 29.61in /  1002.6hPa WSW 3mph /  4.8km/h 6mph /  9.7km/h 70% 0in /  0mm 144.00 W/m2
10:10 52.4 °F /  11.3 °C 43.6 °F /  6.4 °C 29.61in /  1002.6hPa West 4mph /  6.4km/h 4mph /  6.4km/h 72% 0in /  0mm 167.00 W/m2
10:14 52.6 °F /  11.4 °C 44.2 °F /  6.8 °C 29.61in /  1002.6hPa WSW 3mph /  4.8km/h 4mph /  6.4km/h 73% 0in /  0mm 320.00 W/m2
10:20 53 °F /  11.7 °C 44.2 °F /  6.8 °C 29.61in /  1002.6hPa WSW 3mph /  4.8km/h 3mph /  4.8km/h 72% 0in /  0mm 169.00 W/m2
10:24 53.3 °F /  11.8 °C 44.5 °F /  6.9 °C 29.61in /  1002.6hPa WSW 3mph /  4.8km/h 9mph /  14.5km/h 72% 0in /  0mm 211.00 W/m2
10:30 54.4 °F /  12.4 °C 44.4 °F /  6.9 °C 29.61in /  1002.6hPa SSW 3mph /  4.8km/h 3mph /  4.8km/h 69% 0in /  0mm 563.00 W/m2
10:34 54.6 °F /  12.6 °C 44.2 °F /  6.8 °C 29.61in /  1002.6hPa West 3mph /  4.8km/h 6mph /  9.7km/h 68% 0in /  0mm 659.00 W/m2
10:38 53.8 °F /  12.1 °C 43.1 °F /  6.2 °C 29.61in /  1002.6hPa WSW 3mph /  4.8km/h 6mph /  9.7km/h 67% 0in /  0mm 179.00 W/m2
10:44 55.5 °F /  13.1 °C 45.5 °F /  7.5 °C 29.61in /  1002.6hPa WNW 3mph /  4.8km/h 3mph /  4.8km/h 69% 0in /  0mm 548.00 W/m2
10:50 55.3 °F /  12.9 °C 42.5 °F /  5.8 °C 29.61in /  1002.6hPa WSW 2mph /  3.2km/h 2mph /  3.2km/h 62% 0in /  0mm 596.00 W/m2
10:54 55.1 °F /  12.8 °C 42.7 °F /  5.9 °C 29.61in /  1002.6hPa WSW 3mph /  4.8km/h 3mph /  4.8km/h 63% 0in /  0mm 596.00 W/m2
11:00 55.6 °F /  13.1 °C 41.9 °F /  5.5 °C 29.61in /  1002.6hPa WSW 2mph /  3.2km/h 2mph /  3.2km/h 60% 0in /  0mm 636.00 W/m2
11:04 55.4 °F /  13 °C 42.2 °F /  5.7 °C 29.61in /  1002.6hPa SW 3mph /  4.8km/h 3mph /  4.8km/h 61% 0in /  0mm 657.00 W/m2
11:10 56.4 °F /  13.6 °C 46 °F /  7.8 °C 29.61in /  1002.6hPa SW 3mph /  4.8km/h 3mph /  4.8km/h 68% 0in /  0mm 687.00 W/m2
11:14 57.1 °F /  13.9 °C 42.5 °F /  5.8 °C 29.61in /  1002.6hPa WSW 2mph /  3.2km/h 4mph /  6.4km/h 58% 0in /  0mm 759.00 W/m2
11:18 57.2 °F /  14 °C 43.4 °F /  6.3 °C 29.61in /  1002.6hPa WSW 2mph /  3.2km/h 7mph /  11.3km/h 60% 0in /  0mm 163.00 W/m2
11:24 56.2 °F /  13.4 °C 40.7 °F /  4.8 °C 29.61in /  1002.6hPa NW 3mph /  4.8km/h 7mph /  11.3km/h 56% 0in /  0mm 88.00 W/m2
11:30 54.8 °F /  12.7 °C 40.7 °F /  4.8 °C 29.61in /  1002.6hPa West 2mph /  3.2km/h 2mph /  3.2km/h 59% 0in /  0mm 615.00 W/m2
11:34 56.2 °F /  13.4 °C 42.1 °F /  5.6 °C 29.61in /  1002.6hPa WSW 1mph /  1.6km/h 2mph /  3.2km/h 59% 0in /  0mm 617.00 W/m2
11:40 58.1 °F /  14.5 °C 43.8 °F /  6.6 °C 29.61in /  1002.6hPa NW 1mph /  1.6km/h 1mph /  1.6km/h 59% 0in /  0mm 638.00 W/m2
11:44 57 °F /  13.9 °C 40 °F /  4.4 °C 29.61in /  1002.6hPa WNW 1mph /  1.6km/h 3mph /  4.8km/h 53% 0in /  0mm 116.00 W/m2
11:50 55 °F /  12.8 °C 38.6 °F /  3.7 °C 29.61in /  1002.6hPa West 1mph /  1.6km/h 1mph /  1.6km/h 54% 0in /  0mm 176.00 W/m2
11:54 54.6 °F /  12.6 °C 37.8 °F /  3.2 °C 29.61in /  1002.6hPa NW 1mph /  1.6km/h 3mph /  4.8km/h 53% 0in /  0mm 204.00 W/m2
11:58 54.5 °F /  12.5 °C 39.6 °F /  4.2 °C 29.61in /  1002.6hPa WNW 2mph /  3.2km/h 3mph /  4.8km/h 57% 0in /  0mm 223.00 W/m2
12:04 54.7 °F /  12.6 °C 37.4 °F /  3 °C 29.61in /  1002.6hPa WNW 2mph /  3.2km/h 2mph /  3.2km/h 52% 0in /  0mm 237.00 W/m2
12:10 55.2 °F /  12.9 °C 38.8 °F /  3.8 °C 29.61in /  1002.6hPa NNW 2mph /  3.2km/h 2mph /  3.2km/h 54% 0in /  0mm 253.00 W/m2
12:14 55.1 °F /  12.8 °C 39.2 °F /  4 °C 29.60in /  1002.3hPa West 2mph /  3.2km/h 2mph /  3.2km/h 55% 0in /  0mm 204.00 W/m2
12:20 54.8 °F /  12.7 °C 39.4 °F /  4.1 °C 29.60in /  1002.3hPa West 1mph /  1.6km/h 1mph /  1.6km/h 56% 0in /  0mm 218.00 W/m2
12:24 55.2 °F /  12.9 °C 38.4 °F /  3.6 °C 29.60in /  1002.3hPa NW 1mph /  1.6km/h 1mph /  1.6km/h 53% 0in /  0mm 265.00 W/m2
12:30 56.3 °F /  13.5 °C 38.9 °F /  3.8 °C 29.60in /  1002.3hPa West 2mph /  3.2km/h 5mph /  8km/h 52% 0in /  0mm 271.00 W/m2
12:34 57.6 °F /  14.2 °C 38.6 °F /  3.7 °C 29.60in /  1002.3hPa WNW 2mph /  3.2km/h 5mph /  8km/h 49% 0in /  0mm 821.00 W/m2
12:40 56.7 °F /  13.7 °C 38.8 °F /  3.8 °C 29.60in /  1002.3hPa NW 2mph /  3.2km/h 2mph /  3.2km/h 51% 0in /  0mm 338.00 W/m2
12:44 56.8 °F /  13.8 °C 39.8 °F /  4.3 °C 29.60in /  1002.3hPa WNW 3mph /  4.8km/h 4mph /  6.4km/h 53% 0in /  0mm 888.00 W/m2
12:48 56.2 °F /  13.4 °C 38.3 °F /  3.5 °C 29.60in /  1002.3hPa WNW 2mph /  3.2km/h 4mph /  6.4km/h 51% 0in /  0mm 272.00 W/m2
12:54 56.1 °F /  13.4 °C 38.7 °F /  3.7 °C 29.60in /  1002.3hPa NW 2mph /  3.2km/h 3mph /  4.8km/h 52% 0in /  0mm 258.00 W/m2
13:00 56 °F /  13.3 °C 40.1 °F /  4.5 °C 29.59in /  1001.9hPa WSW 2mph /  3.2km/h 3mph /  4.8km/h 55% 0in /  0mm 239.00 W/m2
13:04 55.6 °F /  13.1 °C 40.1 °F /  4.5 °C 29.59in /  1001.9hPa NNW 2mph /  3.2km/h 3mph /  4.8km/h 56% 0in /  0mm 195.00 W/m2
13:08 55.4 °F /  13 °C 41.3 °F /  5.2 °C 29.59in /  1001.9hPa West 2mph /  3.2km/h 3mph /  4.8km/h 59% 0in /  0mm 250.00 W/m2
13:14 56 °F /  13.3 °C 40.5 °F /  4.7 °C 29.59in /  1001.9hPa NNW 2mph /  3.2km/h 4mph /  6.4km/h 56% 0in /  0mm 192.00 W/m2
13:20 55.2 °F /  12.9 °C 41.1 °F /  5.1 °C 29.59in /  1001.9hPa NW 2mph /  3.2km/h 3mph /  4.8km/h 59% 0in /  0mm 127.00 W/m2
13:24 54.6 °F /  12.6 °C 40.6 °F /  4.8 °C 29.59in /  1001.9hPa NW 1mph /  1.6km/h 3mph /  4.8km/h 59% 0in /  0mm 237.00 W/m2
13:30 56.3 °F /  13.5 °C 42.1 °F /  5.6 °C 29.58in /  1001.6hPa NW 2mph /  3.2km/h 2mph /  3.2km/h 59% 0in /  0mm 568.00 W/m2
13:34 56 °F /  13.3 °C 40.5 °F /  4.7 °C 29.58in /  1001.6hPa NW 2mph /  3.2km/h 2mph /  3.2km/h 56% 0in /  0mm 243.00 W/m2
13:40 56.5 °F /  13.6 °C 41.9 °F /  5.5 °C 29.58in /  1001.6hPa NW 3mph /  4.8km/h 4mph /  6.4km/h 58% 0in /  0mm 777.00 W/m2
13:44 56.3 °F /  13.5 °C 41.7 °F /  5.4 °C 29.58in /  1001.6hPa NNW 3mph /  4.8km/h 6mph /  9.7km/h 58% 0in /  0mm 397.00 W/m2
13:50 56.4 °F /  13.6 °C 41.8 °F /  5.4 °C 29.58in /  1001.6hPa NNW 3mph /  4.8km/h 3mph /  4.8km/h 58% 0in /  0mm 190.00 W/m2
13:54 55.4 °F /  13 °C 41.3 °F /  5.2 °C 29.58in /  1001.6hPa NW 2mph /  3.2km/h 3mph /  4.8km/h 59% 0in /  0mm 146.00 W/m2
13:58 54.5 °F /  12.5 °C 40.9 °F /  4.9 °C 29.58in /  1001.6hPa NNW 2mph /  3.2km/h 3mph /  4.8km/h 60% 0in /  0mm 156.00 W/m2
14:04 53.9 °F /  12.2 °C 40.3 °F /  4.6 °C 29.58in /  1001.6hPa NW 3mph /  4.8km/h 3mph /  4.8km/h 60% 0in /  0mm 148.00 W/m2
14:08 53.9 °F /  12.2 °C 41.2 °F /  5.1 °C 29.58in /  1001.6hPa NW 3mph /  4.8km/h 5mph /  8km/h 62% 0in /  0mm 204.00 W/m2
14:14 53.9 °F /  12.2 °C 39.9 °F /  4.4 °C 29.58in /  1001.6hPa NW 3mph /  4.8km/h 4mph /  6.4km/h 59% 0in /  0mm 144.00 W/m2
14:20 53.3 °F /  11.8 °C 40.6 °F /  4.8 °C 29.58in /  1001.6hPa NW 2mph /  3.2km/h 2mph /  3.2km/h 62% 0in /  0mm 128.00 W/m2
14:24 53.1 °F /  11.7 °C 40 °F /  4.4 °C 29.58in /  1001.6hPa NW 2mph /  3.2km/h 2mph /  3.2km/h 61% 0in /  0mm 151.00 W/m2
14:30 53.5 °F /  11.9 °C 40.8 °F /  4.9 °C 29.58in /  1001.6hPa NW 2mph /  3.2km/h 2mph /  3.2km/h 62% 0in /  0mm 352.00 W/m2
14:34 54 °F /  12.2 °C 40.8 °F /  4.9 °C 29.57in /  1001.2hPa NW 1mph /  1.6km/h 2mph /  3.2km/h 61% 0in /  0mm 185.00 W/m2
14:40 54.2 °F /  12.3 °C 40.6 °F /  4.8 °C 29.57in /  1001.2hPa NNW 1mph /  1.6km/h 1mph /  1.6km/h 60% 0in /  0mm 309.00 W/m2
14:44 54.1 °F /  12.3 °C 40.1 °F /  4.5 °C 29.57in /  1001.2hPa NNW 1mph /  1.6km/h 1mph /  1.6km/h 59% 0in /  0mm 260.00 W/m2
14:48 53.8 °F /  12.1 °C 39.8 °F /  4.3 °C 29.57in /  1001.2hPa NNW 1mph /  1.6km/h 4mph /  6.4km/h 59% 0in /  0mm 269.00 W/m2
14:54 53.7 °F /  12.1 °C 39.7 °F /  4.3 °C 29.57in /  1001.2hPa NNW 1mph /  1.6km/h 4mph /  6.4km/h 59% 0in /  0mm 279.00 W/m2
15:00 53.8 °F /  12.1 °C 39.4 °F /  4.1 °C 29.57in /  1001.2hPa NNW 1mph /  1.6km/h 2mph /  3.2km/h 58% 0in /  0mm 325.00 W/m2
15:04 54 °F /  12.2 °C 40 °F /  4.4 °C 29.57in /  1001.2hPa WNW 1mph /  1.6km/h 4mph /  6.4km/h 59% 0in /  0mm 295.00 W/m2
15:08 53.9 °F /  12.2 °C 39.9 °F /  4.4 °C 29.56in /  1000.9hPa WNW 1mph /  1.6km/h 4mph /  6.4km/h 59% 0in /  0mm 244.00 W/m2
15:14 53.8 °F /  12.1 °C 40.7 °F /  4.8 °C 29.57in /  1001.2hPa West 1mph /  1.6km/h 2mph /  3.2km/h 61% 0in /  0mm 214.00 W/m2
15:20 53.6 °F /  12 °C 40.5 °F /  4.7 °C 29.57in /  1001.2hPa NW 1mph /  1.6km/h 3mph /  4.8km/h 61% 0in /  0mm 214.00 W/m2
15:24 53.5 °F /  11.9 °C 38.6 °F /  3.7 °C 29.57in /  1001.2hPa NW 1mph /  1.6km/h 3mph /  4.8km/h 57% 0in /  0mm 216.00 W/m2
15:30 53.3 °F /  11.8 °C 38.4 °F /  3.6 °C 29.57in /  1001.2hPa NW 2mph /  3.2km/h 2mph /  3.2km/h 57% 0in /  0mm 214.00 W/m2
15:34 53.3 °F /  11.8 °C 39.3 °F /  4.1 °C 29.57in /  1001.2hPa NW 2mph /  3.2km/h 4mph /  6.4km/h 59% 0in /  0mm 197.00 W/m2
15:40 53.4 °F /  11.9 °C 39.4 °F /  4.1 °C 29.57in /  1001.2hPa WNW 1mph /  1.6km/h 3mph /  4.8km/h 59% 0in /  0mm 179.00 W/m2
15:44 53.4 °F /  11.9 °C 38.1 °F /  3.4 °C 29.57in /  1001.2hPa NNW 1mph /  1.6km/h 3mph /  4.8km/h 56% 0in /  0mm 146.00 W/m2
15:50 53.1 °F /  11.7 °C 37.3 °F /  2.9 °C 29.57in /  1001.2hPa NW 1mph /  1.6km/h 1mph /  1.6km/h 55% 0in /  0mm 155.00 W/m2
15:54 53 °F /  11.7 °C 36.8 °F /  2.7 °C 29.57in /  1001.2hPa Calm   1mph /  1.6km/h 54% 0in /  0mm 139.00 W/m2
16:00 52.7 °F /  11.5 °C 34.1 °F /  1.2 °C 29.56in /  1000.9hPa NNW 1mph /  1.6km/h 1mph /  1.6km/h 49% 0in /  0mm 127.00 W/m2
16:04 52.5 °F /  11.4 °C 34.9 °F /  1.6 °C 29.56in /  1000.9hPa NNW 1mph /  1.6km/h 1mph /  1.6km/h 51% 0in /  0mm 113.00 W/m2
16:10 52.2 °F /  11.2 °C 34.1 °F /  1.2 °C 29.56in /  1000.9hPa WNW 1mph /  1.6km/h 1mph /  1.6km/h 50% 0in /  0mm 88.00 W/m2
16:14 52.1 °F /  11.2 °C 35.5 °F /  1.9 °C 29.57in /  1001.2hPa WNW 1mph /  1.6km/h 1mph /  1.6km/h 53% 0in /  0mm 77.00 W/m2
16:20 51.8 °F /  11 °C 35.2 °F /  1.8 °C 29.57in /  1001.2hPa Calm   1mph /  1.6km/h 53% 0in /  0mm 76.00 W/m2
16:24 51.7 °F /  10.9 °C 34.6 °F /  1.4 °C 29.57in /  1001.2hPa Calm   2mph /  3.2km/h 52% 0in /  0mm 67.00 W/m2
16:30 51.5 °F /  10.8 °C 34.4 °F /  1.3 °C 29.57in /  1001.2hPa NW 1mph /  1.6km/h 1mph /  1.6km/h 52% 0in /  0mm 69.00 W/m2
16:34 51.4 °F /  10.8 °C 36.2 °F /  2.3 °C 29.57in /  1001.2hPa NW 1mph /  1.6km/h 1mph /  1.6km/h 56% 0in /  0mm 47.00 W/m2
16:40 51.3 °F /  10.7 °C 35.2 °F /  1.8 °C 29.57in /  1001.2hPa WSW 1mph /  1.6km/h 1mph /  1.6km/h 54% 0in /  0mm 51.00 W/m2
16:44 51.2 °F /  10.7 °C 34.6 °F /  1.4 °C 29.57in /  1001.2hPa NNW 1mph /  1.6km/h 1mph /  1.6km/h 53% 0in /  0mm 47.00 W/m2
16:50 51 °F /  10.6 °C 34.5 °F /  1.4 °C 29.57in /  1001.2hPa NW 1mph /  1.6km/h 1mph /  1.6km/h 53% 0in /  0mm 42.00 W/m2
16:54 50.9 °F /  10.5 °C 34.8 °F /  1.6 °C 29.57in /  1001.2hPa Calm   2mph /  3.2km/h 54% 0in /  0mm 42.00 W/m2
17:00 50.7 °F /  10.4 °C 35.1 °F /  1.7 °C 29.57in /  1001.2hPa Calm     55% 0in /  0mm 37.00 W/m2
17:04 50.6 °F /  10.3 °C 36.4 °F /  2.4 °C 29.57in /  1001.2hPa Calm     58% 0in /  0mm 35.00 W/m2
17:10 50.4 °F /  10.2 °C 35.7 °F /  2.1 °C 29.57in /  1001.2hPa Calm     57% 0in /  0mm 35.00 W/m2
17:14 50.4 °F /  10.2 °C 36.6 °F /  2.6 °C 29.57in /  1001.2hPa Calm     59% 0in /  0mm 35.00 W/m2
17:18 50.2 °F /  10.1 °C 35.5 °F /  1.9 °C 29.57in /  1001.2hPa Calm     57% 0in /  0mm 35.00 W/m2
17:24 50.1 °F /  10.1 °C 36.3 °F /  2.4 °C 29.58in /  1001.6hPa Calm     59% 0in /  0mm 30.00 W/m2
17:30 49.9 °F /  9.9 °C 36.1 °F /  2.3 °C 29.58in /  1001.6hPa Calm     59% 0in /  0mm 28.00 W/m2
17:34 49.9 °F /  9.9 °C 36.6 °F /  2.6 °C 29.58in /  1001.6hPa Calm     60% 0in /  0mm 26.00 W/m2
17:40 49.7 °F /  9.8 °C 36.4 °F /  2.4 °C 29.58in /  1001.6hPa Calm     60% 0in /  0mm 16.00 W/m2
17:44 49.7 °F /  9.8 °C 36.4 °F /  2.4 °C 29.58in /  1001.6hPa Calm     60% 0in /  0mm 12.00 W/m2
17:48 49.6 °F /  9.8 °C 36.7 °F /  2.6 °C 29.58in /  1001.6hPa Calm     61% 0in /  0mm 12.00 W/m2
17:54 49.4 °F /  9.7 °C 36.9 °F /  2.7 °C 29.58in /  1001.6hPa Calm     62% 0in /  0mm 9.00 W/m2
18:00 49.2 °F /  9.6 °C 36.7 °F /  2.6 °C 29.58in /  1001.6hPa Calm     62% 0in /  0mm 7.00 W/m2
18:04 48.9 °F /  9.4 °C 36.4 °F /  2.4 °C 29.58in /  1001.6hPa Calm     62% 0in /  0mm 0.00 W/m2
18:10 48.7 °F /  9.3 °C 36.7 °F /  2.6 °C 29.58in /  1001.6hPa Calm     63% 0in /  0mm 0.00 W/m2
18:14 48.5 °F /  9.2 °C 36.5 °F /  2.5 °C 29.58in /  1001.6hPa Calm     63% 0in /  0mm 0.00 W/m2
18:20 48.4 °F /  9.1 °C 36.8 °F /  2.7 °C 29.58in /  1001.6hPa Calm     64% 0in /  0mm 0.00 W/m2
18:24 48.3 °F /  9.1 °C 37.1 °F /  2.8 °C 29.58in /  1001.6hPa Calm     65% 0in /  0mm 0.00 W/m2
18:30 48.1 °F /  8.9 °C 36.9 °F /  2.7 °C 29.58in /  1001.6hPa Calm     65% 0in /  0mm 0.00 W/m2
18:34 48.1 °F /  8.9 °C 36.9 °F /  2.7 °C 29.58in /  1001.6hPa Calm     65% 0in /  0mm 0.00 W/m2
18:40 48 °F /  8.9 °C 36.8 °F /  2.7 °C 29.58in /  1001.6hPa Calm     65% 0in /  0mm 0.00 W/m2
18:44 47.9 °F /  8.8 °C 37.1 °F /  2.8 °C 29.58in /  1001.6hPa Calm     66% 0in /  0mm 0.00 W/m2
18:50 47.8 °F /  8.8 °C 37.4 °F /  3 °C 29.59in /  1001.9hPa Calm     67% 0in /  0mm 0.00 W/m2
18:54 47.7 °F /  8.7 °C 37.3 °F /  2.9 °C 29.59in /  1001.9hPa Calm     67% 0in /  0mm 0.00 W/m2
19:00 47.5 °F /  8.6 °C 37.1 °F /  2.8 °C 29.60in /  1002.3hPa Calm     67% 0in /  0mm 0.00 W/m2
19:04 47.5 °F /  8.6 °C 37.5 °F /  3.1 °C 29.60in /  1002.3hPa Calm     68% 0in /  0mm 0.00 W/m2
19:10 47.3 °F /  8.5 °C 37.6 °F /  3.1 °C 29.59in /  1001.9hPa Calm     69% 0in /  0mm 0.00 W/m2
19:14 47.2 °F /  8.4 °C 37.9 °F /  3.3 °C 29.59in /  1001.9hPa Calm     70% 0in /  0mm 0.00 W/m2
19:20 47 °F /  8.3 °C 38.8 °F /  3.8 °C 29.59in /  1001.9hPa Calm     73% 0in /  0mm 0.00 W/m2
19:24 46.9 °F /  8.3 °C 38 °F /  3.3 °C 29.59in /  1001.9hPa Calm     71% 0in /  0mm 0.00 W/m2
19:28 46.9 °F /  8.3 °C 39 °F /  3.9 °C 29.59in /  1001.9hPa Calm     74% 0in /  0mm 0.00 W/m2
19:34 46.8 °F /  8.2 °C 38.9 °F /  3.8 °C 29.60in /  1002.3hPa Calm     74% 0in /  0mm 0.00 W/m2
19:40 46.7 °F /  8.2 °C 38.5 °F /  3.6 °C 29.60in /  1002.3hPa Calm     73% 0in /  0mm 0.00 W/m2
19:44 46.6 °F /  8.1 °C 38.4 °F /  3.6 °C 29.59in /  1001.9hPa Calm     73% 0in /  0mm 0.00 W/m2
Country Meadow, Clay, NY, USA
Compliments of Weather Underground - 2 mb